DIAP/ABJ METAR and TAF weather

Enter ICAO airport designator
Station Type Date Time Source
DIAP METAR 2019/02/23 23:00 UTC NOAA

DIAP 232300Z 22008KT 9999 FEW011 29/26 Q1010 NOSIG


Station Type Date Time Source
DIAP Decoded METAR 2019/02/23 23:00 UTC NOAA

Abidjan, Cote d'Ivoire (DIAP) 05-15N 003-56W 8M
Feb 23, 2019 - 06:00 PM EST / 2019.02.23 2300 UTC
Wind: from the SW (220 degrees) at 9 MPH (8 KT):0
Visibility: greater than 7 mile(s):0
Sky conditions: mostly clear
Temperature: 84 F (29 C)
Dew Point: 78 F (26 C)
Relative Humidity: 83%
Pressure (altimeter): 29.83 in. Hg (1010 hPa)
ob: DIAP 232300Z 22008KT 9999 FEW011 29/26 Q1010 NOSIG
cycle: 23

Station Type Date Time Source
DIAP TAF 2019/02/23 18:21 UTC NOAA

TAF DIAP 231720Z 2318/2424 23009KT 9000 SCT012 PROB30
TEMPO 2318/2322 TS BKN012 FEW020CB PROB30
TEMPO 2406/2411 4000 RA BKN010 BKN030 PROB40
TEMPO 2415/2421 TS BKN010 FEW020CB


Example: see airport list